Time;durP1;ratioP1;P1;durP2;ratioP2;P2;SDS_P1;SDS_P2;PMS_P1;PMS_P2;Temp;Humidity;BMP_temperature;BMP_pressure;BME280_temperature;BME280_humidity;BME280_pressure;Samples;Min_cycle;Max_cycle;Signal;HPM_P1;HPM_P2
2023/04/18 00:02:54;;;;;;;7.50;6.80;;;22.40;62.40;;;;;;222179;1262;22645;-48
2023/04/18 00:07:58;;;;;;;6.50;6.00;;;22.50;62.50;;;;;;222391;1262;22527;-46
2023/04/18 00:13:04;;;;;;;7.00;6.40;;;22.50;62.50;;;;;;222294;1256;25357;-46
2023/04/18 00:18:09;;;;;;;6.80;6.20;;;22.50;62.80;;;;;;222101;1254;22518;-46
2023/04/18 00:23:13;;;;;;;6.90;6.30;;;22.50;62.80;;;;;;222362;1257;25462;-48
2023/04/18 00:28:17;;;;;;;6.70;6.10;;;22.50;62.90;;;;;;222413;1261;24250;-45
2023/04/18 00:33:21;;;;;;;7.30;6.60;;;22.50;63.00;;;;;;222245;1260;23303;-49
2023/04/18 00:38:27;;;;;;;7.10;6.50;;;22.40;63.50;;;;;;222117;1253;22521;-48
2023/04/18 00:43:33;;;;;;;6.60;6.00;;;22.50;63.60;;;;;;222230;1260;22511;-51
2023/04/18 00:48:38;;;;;;;6.90;6.40;;;22.50;63.40;;;;;;222679;1253;22805;-46
2023/04/18 00:53:43;;;;;;;6.50;6.00;;;22.50;62.70;;;;;;222505;1264;24326;-46
2023/04/18 00:58:48;;;;;;;7.20;6.50;;;22.50;62.50;;;;;;222262;1253;24193;-48
2023/04/18 01:03:53;;;;;;;7.30;6.60;;;22.50;62.50;;;;;;222333;1253;22722;-47
2023/04/18 01:08:58;;;;;;;7.20;6.50;;;22.60;62.40;;;;;;222190;1247;23962;-47
2023/04/18 01:14:07;;;;;;;6.90;6.20;;;22.40;62.40;;;;;;222257;1253;22522;-48
2023/04/18 01:19:11;;;;;;;6.80;6.30;;;22.50;62.30;;;;;;222246;1257;25261;-46
2023/04/18 01:24:16;;;;;;;6.70;6.10;;;22.40;62.40;;;;;;221986;1253;22787;-48
2023/04/18 01:29:20;;;;;;;6.90;6.30;;;22.40;62.20;;;;;;222337;1253;24334;-47
2023/04/18 01:34:25;;;;;;;6.30;5.80;;;22.40;62.20;;;;;;222095;1256;24174;-52
2023/04/18 01:39:29;;;;;;;7.00;6.30;;;22.30;62.30;;;;;;222071;1247;24039;-47
2023/04/18 01:44:33;;;;;;;6.70;6.20;;;22.30;62.30;;;;;;222267;1263;23931;-46
2023/04/18 01:49:38;;;;;;;5.90;5.40;;;22.30;62.30;;;;;;222329;1259;25077;-47
2023/04/18 01:54:42;;;;;;;6.90;6.20;;;22.40;62.10;;;;;;222004;1253;22624;-47
2023/04/18 01:59:46;;;;;;;6.50;6.00;;;22.40;62.00;;;;;;222333;1253;22491;-47
2023/04/18 02:04:50;;;;;;;5.50;5.10;;;22.30;62.00;;;;;;221911;1262;22543;-48
2023/04/18 02:09:54;;;;;;;6.80;6.10;;;22.30;62.00;;;;;;222208;1254;22630;-47
2023/04/18 02:14:58;;;;;;;5.70;5.30;;;22.20;61.90;;;;;;222164;1259;25639;-45
2023/04/18 02:20:02;;;;;;;5.80;5.40;;;22.30;61.90;;;;;;221891;1266;22507;-47
2023/04/18 02:25:07;;;;;;;6.10;5.60;;;22.20;62.00;;;;;;222171;1263;22538;-44
2023/04/18 02:30:11;;;;;;;6.20;5.70;;;22.30;61.90;;;;;;222185;1256;24799;-46
2023/04/18 02:35:15;;;;;;;5.60;5.10;;;22.20;62.30;;;;;;222173;1259;25456;-47
2023/04/18 02:40:19;;;;;;;5.50;5.00;;;22.20;61.90;;;;;;221876;1255;22513;-48
2023/04/18 02:45:25;;;;;;;5.20;4.80;;;22.10;61.90;;;;;;222063;1263;22540;-47
2023/04/18 02:50:29;;;;;;;5.30;4.90;;;22.10;61.80;;;;;;222139;1254;22522;-47
2023/04/18 02:55:33;;;;;;;6.10;5.60;;;22.10;61.70;;;;;;222127;1256;23924;-47
2023/04/18 03:00:38;;;;;;;5.80;5.30;;;22.10;61.70;;;;;;222001;1262;22510;-48
2023/04/18 03:05:53;;;;;;;5.40;5.00;;;22.10;62.10;;;;;;222100;1256;24278;-46
2023/04/18 03:10:57;;;;;;;7.50;5.10;;;22.10;61.70;;;;;;221808;1263;24190;-48
2023/04/18 03:16:03;;;;;;;5.10;4.80;;;22.10;61.70;;;;;;222213;1263;25502;-47
2023/04/18 03:21:07;;;;;;;5.80;5.20;;;22.10;61.70;;;;;;222230;1256;22744;-51
2023/04/18 03:26:12;;;;;;;5.20;4.90;;;22.10;61.60;;;;;;221894;1263;25965;-46
2023/04/18 03:31:17;;;;;;;6.30;4.90;;;22.00;62.00;;;;;;222363;1254;25408;-45
2023/04/18 03:36:24;;;;;;;4.80;4.40;;;22.00;61.70;;;;;;222139;1263;22536;-47
2023/04/18 03:41:29;;;;;;;6.00;5.50;;;22.00;61.80;;;;;;222117;1257;22517;-46
2023/04/18 03:46:34;;;;;;;5.30;4.90;;;21.90;62.00;;;;;;222025;1263;25201;-48
2023/04/18 03:51:46;;;;;;;5.60;5.10;;;21.90;61.90;;;;;;222375;1262;23944;-48
2023/04/18 03:56:50;;;;;;;5.10;4.70;;;21.90;61.80;;;;;;222192;1257;25374;-49
2023/04/18 04:01:55;;;;;;;4.70;4.40;;;21.90;61.80;;;;;;222044;1250;22514;-46
2023/04/18 04:07:00;;;;;;;4.70;4.40;;;21.90;62.50;;;;;;222155;1263;22651;-46
2023/04/18 04:12:05;;;;;;;4.80;4.40;;;21.80;61.90;;;;;;222334;1266;25302;-45
2023/04/18 04:17:09;;;;;;;4.90;4.60;;;21.90;61.80;;;;;;222736;1253;22501;-47
2023/04/18 04:22:15;;;;;;;5.40;5.00;;;21.90;61.90;;;;;;222450;1263;22514;-48
2023/04/18 04:27:19;;;;;;;5.80;5.40;;;21.90;62.10;;;;;;222344;1266;24039;-46
2023/04/18 04:32:24;;;;;;;5.30;5.00;;;21.90;61.80;;;;;;222011;1255;23885;-47
2023/04/18 04:37:28;;;;;;;5.30;4.90;;;21.80;61.90;;;;;;222153;1265;24218;-46
2023/04/18 04:42:47;;;;;;;6.10;4.70;;;21.80;62.00;;;;;;222207;1263;24081;-46
2023/04/18 04:47:57;;;;;;;4.80;4.40;;;21.80;61.80;;;;;;222656;1253;25407;-46
2023/04/18 04:53:01;;;;;;;5.20;4.70;;;21.90;62.10;;;;;;222135;1263;24360;-48
2023/04/18 04:58:05;;;;;;;4.80;4.50;;;22.20;61.80;;;;;;222158;1263;23908;-48
2023/04/18 05:03:33;;;;;;;5.60;4.50;;;22.60;60.70;;;;;;222140;1261;22586;-48
2023/04/18 05:08:39;;;;;;;4.60;4.30;;;22.90;59.90;;;;;;222235;1263;22515;-48
2023/04/18 05:13:43;;;;;;;4.50;4.20;;;23.00;59.50;;;;;;222435;1246;24199;-47
2023/04/18 05:18:47;;;;;;;4.80;4.40;;;23.20;59.10;;;;;;222144;1256;23168;-47
2023/04/18 05:23:51;;;;;;;4.80;4.40;;;23.20;58.90;;;;;;222450;1254;22508;-47
2023/04/18 05:28:55;;;;;;;5.10;4.80;;;23.40;58.70;;;;;;222099;1266;22613;-50
2023/04/18 05:33:59;;;;;;;4.20;3.80;;;23.40;58.60;;;;;;222166;1253;23882;-45
2023/04/18 05:39:03;;;;;;;4.80;4.20;;;23.40;58.70;;;;;;222241;1263;23951;-48
2023/04/18 05:44:07;;;;;;;4.20;3.90;;;23.40;58.70;;;;;;222217;1246;22534;-46
2023/04/18 05:49:12;;;;;;;4.60;4.20;;;23.40;58.60;;;;;;222633;1266;22525;-47
2023/04/18 05:54:16;;;;;;;4.60;4.20;;;23.50;58.90;;;;;;222088;1253;24259;-49
2023/04/18 05:59:21;;;;;;;5.10;4.70;;;23.50;58.50;;;;;;222276;1260;22523;-48
2023/04/18 06:04:25;;;;;;;6.40;4.90;;;23.50;59.40;;;;;;222351;1261;22662;-49
2023/04/18 06:09:29;;;;;;;6.10;4.30;;;23.40;59.80;;;;;;222418;1256;23171;-52
2023/04/18 06:14:33;;;;;;;9.50;4.20;;;23.40;59.80;;;;;;222241;1268;24134;-54
2023/04/18 06:19:38;;;;;;;5.20;4.50;;;23.30;60.20;;;;;;222347;1266;24211;-49
2023/04/18 06:24:42;;;;;;;6.70;4.80;;;23.30;60.70;;;;;;222500;1254;25391;-49
2023/04/18 06:29:46;;;;;;;7.10;4.30;;;23.40;60.40;;;;;;221673;1266;215018;-49
2023/04/18 06:34:51;;;;;;;6.10;4.90;;;23.20;60.50;;;;;;222273;1269;22513;-50
2023/04/18 06:39:55;;;;;;;4.80;4.30;;;23.10;61.30;;;;;;221647;1263;22538;-47
2023/04/18 06:44:59;;;;;;;5.60;4.90;;;23.10;61.60;;;;;;221912;1257;24355;-49
2023/04/18 06:50:05;;;;;;;4.90;4.50;;;23.10;61.00;;;;;;222206;1258;24195;-47
2023/04/18 06:55:13;;;;;;;7.20;4.10;;;23.00;61.10;;;;;;222176;1263;24317;-51
2023/04/18 07:00:17;;;;;;;9.90;4.50;;;23.20;62.00;;;;;;222352;1263;24355;-50
2023/04/18 07:05:21;;;;;;;9.20;4.90;;;23.00;61.30;;;;;;222084;1265;22638;-53
2023/04/18 07:10:25;;;;;;;5.60;5.00;;;23.10;60.90;;;;;;221844;1266;22912;-52
2023/04/18 07:15:29;;;;;;;8.20;5.40;;;22.90;60.50;;;;;;221965;1253;24364;-50
2023/04/18 07:20:33;;;;;;;8.80;5.40;;;22.80;61.00;;;;;;226278;1254;22612;-49
2023/04/18 07:25:39;;;;;;;7.60;5.60;;;22.90;60.70;;;;;;227104;1268;23889;-52
2023/04/18 07:30:43;;;;;;;9.10;5.00;;;22.90;60.50;;;;;;222574;1250;22514;-49
2023/04/18 07:35:49;;;;;;;6.60;5.30;;;22.80;60.40;;;;;;222274;1269;22511;-50
2023/04/18 07:41:00;;;;;;;6.90;5.10;;;22.60;61.90;;;;;;222260;1261;26159;-48
2023/04/18 07:46:05;;;;;;;6.10;5.10;;;22.60;61.10;;;;;;222315;1268;24251;-51
2023/04/18 07:51:10;;;;;;;6.50;4.80;;;22.60;61.20;;;;;;222396;1268;23013;-50
2023/04/18 07:56:14;;;;;;;6.30;5.70;;;22.60;61.20;;;;;;222096;1261;22510;-51
2023/04/18 08:01:22;;;;;;;8.20;5.00;;;22.50;61.50;;;;;;222123;1254;24036;-51
2023/04/18 08:06:27;;;;;;;5.50;5.10;;;22.50;61.20;;;;;;222280;1266;24227;-51
2023/04/18 08:11:32;;;;;;;5.40;4.90;;;22.50;61.20;;;;;;222478;1264;22510;-48
2023/04/18 08:16:38;;;;;;;5.50;4.50;;;22.40;61.60;;;;;;222470;1266;24042;-50
2023/04/18 08:21:42;;;;;;;6.70;4.70;;;22.40;61.20;;;;;;222050;1263;25281;-49
2023/04/18 08:26:46;;;;;;;6.50;4.80;;;22.40;61.30;;;;;;222420;1263;22673;-50
2023/04/18 08:31:50;;;;;;;5.50;5.00;;;22.40;61.10;;;;;;222216;1256;22629;-49
2023/04/18 08:36:54;;;;;;;5.30;4.90;;;22.40;61.10;;;;;;222099;1263;22513;-51
2023/04/18 08:42:00;;;;;;;5.80;5.30;;;22.40;60.80;;;;;;221881;1266;22626;-48
2023/04/18 08:47:07;;;;;;;4.90;4.60;;;22.50;60.40;;;;;;222336;1266;22988;-48
2023/04/18 08:52:18;;;;;;;4.80;4.50;;;22.60;60.90;;;;;;222094;1264;23893;-47
2023/04/18 08:57:25;;;;;;;5.10;4.70;;;22.60;60.40;;;;;;222170;1260;22526;-48
2023/04/18 09:02:41;;;;;;;5.20;4.80;;;22.50;60.60;;;;;;222481;1262;22807;-45
2023/04/18 09:07:47;;;;;;;5.10;4.70;;;22.50;60.30;;;;;;221170;1265;22804;-50
2023/04/18 09:12:51;;;;;;;5.00;4.60;;;22.30;60.80;;;;;;221097;1262;22530;-48
2023/04/18 09:18:01;;;;;;;5.40;5.00;;;22.30;61.00;;;;;;221017;1271;23889;-45
2023/04/18 09:23:13;;;;;;;5.60;5.10;;;22.30;61.30;;;;;;221281;1268;22627;-49
2023/04/18 09:28:31;;;;;;;5.40;4.90;;;22.30;61.40;;;;;;222404;1263;22508;-52
2023/04/18 09:33:37;;;;;;;5.20;4.80;;;22.30;60.90;;;;;;222260;1263;24299;-49
2023/04/18 09:38:41;;;;;;;6.10;5.50;;;22.30;60.80;;;;;;222196;1263;25220;-47
2023/04/18 09:43:45;;;;;;;5.20;4.80;;;22.30;60.90;;;;;;222134;1254;22637;-49
2023/04/18 09:48:49;;;;;;;8.60;7.90;;;22.20;60.80;;;;;;222152;1264;24219;-46
2023/04/18 09:53:54;;;;;;;6.80;6.20;;;22.30;60.20;;;;;;221948;1269;22758;-47
2023/04/18 09:59:10;;;;;;;10.00;6.30;;;22.20;60.50;;;;;;222389;1257;22659;-47
2023/04/18 10:04:15;;;;;;;6.70;6.10;;;22.20;60.40;;;;;;222341;1254;23912;-50
2023/04/18 10:09:21;;;;;;;6.80;6.30;;;22.30;60.50;;;;;;222325;1253;25364;-46
2023/04/18 10:14:25;;;;;;;7.40;6.20;;;22.20;60.50;;;;;;222637;1253;25296;-46
2023/04/18 10:19:30;;;;;;;7.20;6.50;;;22.10;60.70;;;;;;222209;1246;25469;-47
2023/04/18 10:24:53;;;;;;;7.10;6.40;;;22.10;60.80;;;;;;222055;1258;22755;-50
2023/04/18 10:29:57;;;;;;;7.20;6.50;;;22.00;60.70;;;;;;222077;1254;22606;-48
2023/04/18 10:35:01;;;;;;;7.20;5.90;;;22.10;60.70;;;;;;222199;1269;24330;-48
2023/04/18 10:40:06;;;;;;;6.40;5.90;;;22.10;60.60;;;;;;222336;1254;24207;-48
2023/04/18 10:45:21;;;;;;;7.00;6.40;;;22.10;60.50;;;;;;222346;1266;22498;-49
2023/04/18 10:50:25;;;;;;;6.70;6.20;;;22.10;60.60;;;;;;222308;1266;22561;-48
2023/04/18 10:55:30;;;;;;;7.50;6.90;;;22.10;60.50;;;;;;222141;1259;22511;-48
2023/04/18 11:00:34;;;;;;;7.00;6.40;;;22.00;60.80;;;;;;222374;1269;24101;-49
2023/04/18 11:05:38;;;;;;;6.70;6.20;;;22.00;60.50;;;;;;222003;1260;24381;-50
2023/04/18 11:10:56;;;;;;;7.60;7.00;;;22.00;60.50;;;;;;222241;1266;24171;-49
2023/04/18 11:16:01;;;;;;;7.30;6.60;;;22.00;60.50;;;;;;222193;1263;22982;-46
2023/04/18 11:21:05;;;;;;;6.60;6.10;;;22.00;60.40;;;;;;222123;1269;22720;-47
2023/04/18 11:26:11;;;;;;;6.30;5.70;;;22.00;60.40;;;;;;222078;1262;22602;-47
2023/04/18 11:31:15;;;;;;;6.70;6.10;;;22.00;60.40;;;;;;222250;1254;24045;-50
2023/04/18 11:36:19;;;;;;;7.40;6.70;;;22.00;60.40;;;;;;222230;1261;25306;-48
2023/04/18 11:41:23;;;;;;;7.60;6.90;;;22.00;60.30;;;;;;222560;1266;25446;-46
2023/04/18 11:46:37;;;;;;;8.90;8.00;;;22.00;60.30;;;;;;222045;1264;22578;-49
2023/04/18 11:51:45;;;;;;;9.70;8.70;;;22.10;59.60;;;;;;222280;1261;22526;-49
2023/04/18 11:56:49;;;;;;;8.20;7.50;;;22.10;58.90;;;;;;222144;1266;22510;-47
2023/04/18 12:02:03;;;;;;;8.30;7.50;;;22.10;59.60;;;;;;222212;1264;24246;-52
2023/04/18 12:07:49;;;;;;;8.40;7.70;;;22.10;59.40;;;;;;221966;1256;24218;-56
2023/04/18 12:12:56;;;;;;;8.60;7.80;;;22.10;59.30;;;;;;220765;1275;22634;-51
2023/04/18 12:18:02;;;;;;;8.30;7.50;;;22.20;59.40;;;;;;220521;1274;24244;-48
2023/04/18 12:23:07;;;;;;;8.40;7.60;;;22.10;59.50;;;;;;220871;1269;22524;-47
2023/04/18 12:28:15;;;;;;;8.40;7.60;;;22.20;59.60;;;;;;220691;1275;24192;-46
2023/04/18 12:33:19;;;;;;;8.90;7.70;;;22.40;59.30;;;;;;220783;1267;23968;-48
2023/04/18 12:38:23;;;;;;;8.50;7.70;;;22.30;59.10;;;;;;220733;1269;23927;-47
2023/04/18 12:43:27;;;;;;;8.80;7.50;;;22.40;59.10;;;;;;220540;1268;22757;-46
2023/04/18 12:48:31;;;;;;;8.50;7.70;;;22.30;59.40;;;;;;221452;1269;25497;-46
2023/04/18 12:54:06;;;;;;;8.30;7.50;;;22.30;60.00;;;;;;222206;1247;23896;-47
2023/04/18 12:59:11;;;;;;;8.50;7.80;;;22.30;59.20;;;;;;222094;1266;22620;-46
2023/04/18 13:04:15;;;;;;;7.80;7.20;;;22.30;59.50;;;;;;222095;1266;24188;-48
2023/04/18 13:09:19;;;;;;;9.10;7.80;;;22.30;59.30;;;;;;222134;1269;25559;-51
2023/04/18 13:14:24;;;;;;;8.20;7.60;;;22.30;59.20;;;;;;222045;1269;23911;-48
2023/04/18 13:19:28;;;;;;;8.60;7.90;;;22.30;59.20;;;;;;222051;1261;23782;-49
2023/04/18 13:24:32;;;;;;;9.70;8.30;;;22.30;59.10;;;;;;222287;1263;24803;-48
2023/04/18 13:29:38;;;;;;;9.50;8.80;;;22.30;59.20;;;;;;221758;1267;23883;-46
2023/04/18 13:34:46;;;;;;;8.50;7.80;;;22.30;59.20;;;;;;222370;1263;22529;-45
2023/04/18 13:39:50;;;;;;;9.50;8.70;;;22.30;58.80;;;;;;222243;1266;22795;-46
2023/04/18 13:44:54;;;;;;;9.10;8.30;;;22.20;59.40;;;;;;222616;1263;25214;-46
2023/04/18 13:49:58;;;;;;;9.10;8.30;;;22.20;59.30;;;;;;222311;1264;22524;-46
2023/04/18 13:55:02;;;;;;;8.90;8.00;;;22.30;59.00;;;;;;222265;1267;24182;-47
2023/04/18 14:00:08;;;;;;;9.20;8.40;;;22.30;59.00;;;;;;222441;1262;22526;-49
2023/04/18 14:05:14;;;;;;;8.90;8.10;;;22.30;58.80;;;;;;222438;1269;22562;-53
2023/04/18 14:10:20;;;;;;;9.10;8.20;;;22.30;59.20;;;;;;222399;1269;24219;-52
2023/04/18 14:15:24;;;;;;;10.30;8.10;;;22.30;58.80;;;;;;222145;1269;24257;-54
2023/04/18 14:20:33;;;;;;;8.90;8.20;;;22.30;58.60;;;;;;222049;1256;22524;-53
2023/04/18 14:25:37;;;;;;;9.00;8.30;;;22.20;58.80;;;;;;221869;1269;22526;-50
2023/04/18 14:30:41;;;;;;;9.00;8.30;;;22.30;58.80;;;;;;222054;1256;22522;-52
2023/04/18 14:35:45;;;;;;;9.30;8.50;;;22.30;58.40;;;;;;221948;1251;22521;-49
2023/04/18 14:40:49;;;;;;;9.10;8.30;;;22.30;58.50;;;;;;222167;1269;22515;-54
2023/04/18 14:45:53;;;;;;;8.60;7.80;;;22.30;58.50;;;;;;222136;1271;22521;-52
2023/04/18 14:50:58;;;;;;;8.60;7.80;;;22.30;58.60;;;;;;222214;1269;23289;-50
2023/04/18 14:56:03;;;;;;;10.30;8.40;;;22.30;58.20;;;;;;222160;1261;24295;-53
2023/04/18 15:01:07;;;;;;;8.90;7.90;;;22.20;58.80;;;;;;222297;1269;24315;-51
2023/04/18 15:06:11;;;;;;;12.40;9.30;;;22.30;58.50;;;;;;222098;1266;22626;-50
2023/04/18 15:11:15;;;;;;;9.10;8.20;;;22.30;59.10;;;;;;222047;1264;25287;-50
2023/04/18 15:16:19;;;;;;;9.30;8.50;;;22.30;59.30;;;;;;222451;1256;24205;-52
2023/04/18 15:21:23;;;;;;;12.50;7.80;;;22.40;59.00;;;;;;222333;1263;22586;-49
2023/04/18 15:26:28;;;;;;;9.10;8.10;;;22.40;59.80;;;;;;222428;1264;22507;-50
2023/04/18 15:31:35;;;;;;;9.50;8.60;;;22.50;59.10;;;;;;222728;1269;25399;-52
2023/04/18 15:36:42;;;;;;;9.50;8.30;;;22.60;59.90;;;;;;222289;1254;25436;-49
2023/04/18 15:41:46;;;;;;;13.50;8.70;;;22.50;60.40;;;;;;222604;1257;22602;-49
2023/04/18 15:46:50;;;;;;;14.70;8.90;;;22.40;60.50;;;;;;222182;1261;25411;-50
2023/04/18 15:51:55;;;;;;;10.60;9.40;;;22.40;61.70;;;;;;222616;1263;23879;-51
2023/04/18 15:56:59;;;;;;;14.00;8.70;;;22.50;61.90;;;;;;222071;1261;24193;-50
2023/04/18 16:02:05;;;;;;;24.70;18.80;;;22.50;61.60;;;;;;222301;1258;24195;-48
2023/04/18 16:07:10;;;;;;;27.60;15.80;;;22.50;61.90;;;;;;222381;1251;22599;-49
2023/04/18 16:12:14;;;;;;;23.70;14.30;;;22.50;61.90;;;;;;222311;1251;24122;-53
2023/04/18 16:17:18;;;;;;;17.00;13.40;;;22.40;63.00;;;;;;222301;1263;24033;-49
2023/04/18 16:22:22;;;;;;;19.30;13.50;;;22.30;63.00;;;;;;222275;1257;22676;-49
2023/04/18 16:27:27;;;;;;;21.10;13.50;;;22.30;63.20;;;;;;222022;1264;22530;-48
2023/04/18 16:32:31;;;;;;;17.20;12.70;;;22.20;63.00;;;;;;222405;1261;22652;-46
2023/04/18 16:37:37;;;;;;;22.90;12.20;;;22.20;63.40;;;;;;222191;1266;24845;-46
2023/04/18 16:42:42;;;;;;;16.30;13.00;;;22.20;63.70;;;;;;222228;1267;25539;-49
2023/04/18 16:47:46;;;;;;;17.40;12.50;;;22.10;63.20;;;;;;222232;1267;22525;-51
2023/04/18 16:52:51;;;;;;;19.60;12.20;;;22.30;63.30;;;;;;222093;1267;22724;-51
2023/04/18 16:57:55;;;;;;;20.80;13.20;;;22.50;63.20;;;;;;222334;1264;22510;-47
2023/04/18 17:03:00;;;;;;;20.50;12.50;;;22.50;62.50;;;;;;222206;1269;22530;-47
2023/04/18 17:08:05;;;;;;;18.00;12.80;;;22.40;62.70;;;;;;222061;1264;24336;-47
2023/04/18 17:13:10;;;;;;;16.50;13.50;;;22.30;62.60;;;;;;222406;1248;24206;-47
2023/04/18 17:18:15;;;;;;;20.10;13.10;;;22.30;62.50;;;;;;222162;1257;25256;-49
2023/04/18 17:23:19;;;;;;;20.90;12.80;;;22.40;62.80;;;;;;222086;1246;24308;-50
2023/04/18 17:28:24;;;;;;;20.80;12.50;;;22.50;62.20;;;;;;222535;1267;22647;-49
2023/04/18 17:33:30;;;;;;;18.80;12.50;;;22.50;61.70;;;;;;222291;1255;22874;-48
2023/04/18 17:38:36;;;;;;;20.50;12.70;;;22.50;61.20;;;;;;222095;1258;22518;-47
2023/04/18 17:43:44;;;;;;;18.70;12.50;;;22.50;60.80;;;;;;222437;1254;24295;-48
2023/04/18 17:48:49;;;;;;;17.00;12.30;;;22.50;60.90;;;;;;222417;1264;22545;-49
2023/04/18 17:53:57;;;;;;;19.70;12.30;;;22.40;61.10;;;;;;222392;1261;25433;-47
2023/04/18 17:59:06;;;;;;;21.10;13.10;;;22.50;60.60;;;;;;222147;1263;24244;-46
2023/04/18 18:04:11;;;;;;;15.80;12.10;;;22.40;60.50;;;;;;222291;1253;24183;-46
2023/04/18 18:09:16;;;;;;;19.50;11.80;;;22.40;60.50;;;;;;222293;1257;22506;-50
2023/04/18 18:14:24;;;;;;;20.50;13.30;;;22.30;62.20;;;;;;222085;1263;22636;-46
2023/04/18 18:19:35;;;;;;;16.60;12.20;;;22.40;63.50;;;;;;221912;1254;25531;-49
2023/04/18 18:24:41;;;;;;;17.80;12.40;;;22.40;62.70;;;;;;222195;1266;25347;-48
2023/04/18 18:29:49;;;;;;;15.60;11.70;;;22.40;62.40;;;;;;221535;1254;871137;-51
2023/04/18 18:34:56;;;;;;;15.90;12.30;;;22.30;62.00;;;;;;221946;1269;23144;-48
2023/04/18 18:40:04;;;;;;;17.00;11.20;;;22.40;61.70;;;;;;221820;1266;22534;-49
2023/04/18 18:45:14;;;;;;;15.00;11.40;;;22.40;61.80;;;;;;221796;1257;23007;-47
2023/04/18 18:50:19;;;;;;;13.40;12.00;;;22.40;61.20;;;;;;221986;1248;24334;-50
2023/04/18 18:55:25;;;;;;;15.00;12.00;;;22.40;61.00;;;;;;222019;1266;23875;-47
2023/04/18 19:00:31;;;;;;;14.60;11.70;;;22.30;60.90;;;;;;222049;1262;24228;-47
2023/04/18 19:05:36;;;;;;;14.20;11.50;;;22.40;60.70;;;;;;222169;1263;23358;-45
2023/04/18 19:10:47;;;;;;;16.50;12.60;;;22.30;61.00;;;;;;222171;1263;24186;-49
2023/04/18 19:15:54;;;;;;;13.60;12.20;;;22.30;60.30;;;;;;222178;1264;24231;-51
2023/04/18 19:21:01;;;;;;;13.60;10.80;;;22.30;60.50;;;;;;221903;1266;22776;-45
2023/04/18 19:26:08;;;;;;;13.20;11.40;;;22.30;60.20;;;;;;221964;1261;22665;-46
2023/04/18 19:31:14;;;;;;;17.20;13.00;;;22.30;60.80;;;;;;222180;1259;25415;-48
2023/04/18 19:36:23;;;;;;;12.70;11.20;;;22.30;60.80;;;;;;221585;1267;24186;-52
2023/04/18 19:41:30;;;;;;;15.60;11.90;;;22.30;61.10;;;;;;221695;1257;25596;-50
2023/04/18 19:46:36;;;;;;;13.60;11.10;;;22.30;61.20;;;;;;221731;1266;22539;-47
2023/04/18 19:51:42;;;;;;;22.10;12.80;;;22.20;61.90;;;;;;221711;1266;24382;-47
2023/04/18 19:56:49;;;;;;;14.90;11.60;;;22.10;62.50;;;;;;222216;1254;22524;-51
2023/04/18 20:02:00;;;;;;;18.10;12.10;;;22.20;61.80;;;;;;222127;1253;25214;-46
2023/04/18 20:07:10;;;;;;;14.40;10.90;;;22.10;62.00;;;;;;222675;1260;22514;-54
2023/04/18 20:12:16;;;;;;;15.80;11.40;;;22.10;62.40;;;;;;222142;1262;24193;-48
2023/04/18 20:17:22;;;;;;;14.30;10.60;;;22.20;61.50;;;;;;222421;1257;24216;-50
2023/04/18 20:22:28;;;;;;;13.50;11.30;;;22.10;61.70;;;;;;222455;1254;22542;-47
2023/04/18 20:27:37;;;;;;;14.50;10.10;;;22.20;62.00;;;;;;222509;1263;25479;-47
2023/04/18 20:32:42;;;;;;;16.10;10.70;;;22.00;62.60;;;;;;222277;1253;23901;-47
2023/04/18 20:37:48;;;;;;;18.70;10.80;;;22.10;62.90;;;;;;222414;1266;24246;-51
2023/04/18 20:42:57;;;;;;;15.70;10.20;;;22.10;62.60;;;;;;222645;1253;22518;-43
2023/04/18 20:48:02;;;;;;;14.90;10.40;;;22.30;62.60;;;;;;222509;1260;23885;-42
2023/04/18 20:53:07;;;;;;;14.50;10.00;;;22.00;62.60;;;;;;222249;1254;25210;-45
2023/04/18 20:58:11;;;;;;;13.90;10.20;;;22.00;63.00;;;;;;222162;1253;23337;-42
2023/04/18 21:03:15;;;;;;;10.90;9.90;;;22.10;63.80;;;;;;222177;1263;23104;-41
2023/04/18 21:08:21;;;;;;;11.70;10.20;;;22.00;63.60;;;;;;222255;1260;22522;-43
2023/04/18 21:13:25;;;;;;;11.00;9.70;;;21.90;64.30;;;;;;222535;1260;22683;-43
2023/04/18 21:18:29;;;;;;;12.50;9.30;;;21.90;63.80;;;;;;222301;1262;22510;-44
2023/04/18 21:23:40;;;;;;;15.80;9.90;;;21.90;63.80;;;;;;222135;1254;25371;-43
2023/04/18 21:28:57;;;;;;;10.80;9.20;;;21.80;63.90;;;;;;222020;1263;26586;-44
2023/04/18 21:34:03;;;;;;;16.50;9.10;;;21.80;63.80;;;;;;222204;1253;23109;-43
2023/04/18 21:39:07;;;;;;;11.50;9.40;;;21.90;63.80;;;;;;222246;1257;22813;-43
2023/04/18 21:44:11;;;;;;;9.60;8.70;;;21.80;63.80;;;;;;222043;1263;25392;-44
2023/04/18 21:49:16;;;;;;;9.80;8.80;;;21.80;64.00;;;;;;222262;1256;25383;-47
2023/04/18 21:54:20;;;;;;;12.40;9.00;;;21.70;64.00;;;;;;222045;1258;22511;-42
2023/04/18 21:59:24;;;;;;;10.50;9.10;;;21.70;64.00;;;;;;221930;1263;22517;-43
2023/04/18 22:04:28;;;;;;;11.80;8.80;;;21.80;63.90;;;;;;222055;1250;26499;-43
2023/04/18 22:09:35;;;;;;;11.00;9.90;;;21.80;64.10;;;;;;222231;1258;22522;-45
2023/04/18 22:14:40;;;;;;;12.60;9.50;;;22.00;64.40;;;;;;222569;1256;22516;-46
2023/04/18 22:19:46;;;;;;;16.70;9.10;;;22.10;64.80;;;;;;222442;1262;23882;-46
2023/04/18 22:24:51;;;;;;;13.80;9.20;;;22.00;65.90;;;;;;222275;1256;22521;-49
2023/04/18 22:29:55;;;;;;;12.00;9.30;;;22.00;67.30;;;;;;222012;1256;25217;-46
2023/04/18 22:34:59;;;;;;;10.40;9.20;;;22.00;66.50;;;;;;222069;1254;22521;-46
2023/04/18 22:40:07;;;;;;;12.40;8.80;;;22.00;66.20;;;;;;222029;1256;24273;-45
2023/04/18 22:45:12;;;;;;;9.80;8.70;;;22.10;66.00;;;;;;222407;1262;23016;-46
2023/04/18 22:50:16;;;;;;;11.40;9.30;;;22.00;66.20;;;;;;222143;1263;22514;-46
2023/04/18 22:55:20;;;;;;;11.30;8.70;;;21.90;66.20;;;;;;222071;1257;24265;-47
2023/04/18 23:00:24;;;;;;;11.10;8.20;;;21.90;65.80;;;;;;222252;1256;22745;-48
2023/04/18 23:05:29;;;;;;;10.80;8.50;;;21.90;65.60;;;;;;222195;1263;22811;-49
2023/04/18 23:10:33;;;;;;;9.40;8.10;;;22.00;65.50;;;;;;222204;1256;24218;-48
2023/04/18 23:15:37;;;;;;;11.40;8.30;;;21.90;65.50;;;;;;221920;1263;24062;-47
2023/04/18 23:20:41;;;;;;;9.90;8.30;;;21.90;65.30;;;;;;221874;1262;22514;-46
2023/04/18 23:25:45;;;;;;;9.30;8.40;;;21.90;65.40;;;;;;221919;1259;22563;-46
2023/04/18 23:30:49;;;;;;;9.20;8.30;;;21.90;65.40;;;;;;222097;1265;23016;-46
2023/04/18 23:35:53;;;;;;;14.50;8.60;;;21.90;65.60;;;;;;221811;1259;25318;-46
2023/04/18 23:40:57;;;;;;;8.50;7.70;;;21.80;65.60;;;;;;222014;1254;22553;-46
2023/04/18 23:46:01;;;;;;;11.60;8.00;;;21.80;65.50;;;;;;222041;1247;22524;-48
2023/04/18 23:51:05;;;;;;;9.00;8.20;;;21.80;66.40;;;;;;221873;1263;24365;-46
2023/04/18 23:56:09;;;;;;;8.20;7.50;;;21.90;65.80;;;;;;221837;1254;22504;-48
